Churchville, Virginia
Current Conditions -  °F | °C
As of 11:15 AM on Sunday 25 Jan 2015 (Local Time) from KSHD Reporting Station
Clear Clear  
Wind Chill: 38°   Ceiling: Unl
Heat Index: 41°   Visibility: 10mi
Dew Point: 30°   Wind: 5mph
Humidity: 65%   Direction: 200°SSW
Pressure: 29.86"   Gusts: NA
Location:  38.23°N, 79.16°W
Report Text: KSHD 251615Z AUTO 20004KT 10SM CLR 05/M01 A2986 RMK AO2 T00521010
Loading
Personal Weather Stations






























Interactive Weather Map New forecast layout! Learn more

10-Day Weather Forecast

Advertisements
Track Severe Weather on mobile